Time;durP1;ratioP1;P1;durP2;ratioP2;P2;SDS_P1;SDS_P2;PMS_P1;PMS_P2;Temp;Humidity;BMP_temperature;BMP_pressure;BME280_temperature;BME280_humidity;BME280_pressure;Samples;Min_cycle;Max_cycle;Signal;HPM_P1;HPM_P2
2023/03/26 00:01:18;;;;;;;;;11.00;9.50;23.90;39.20;;;;;;111007;1243;54406;-65
2023/03/26 00:03:45;;;;;;;;;13.75;10.75;23.90;39.50;;;;;;111221;1243;54609;-66
2023/03/26 00:06:15;;;;;;;;;10.00;9.00;23.90;39.30;;;;;;111226;1239;50610;-65
2023/03/26 00:08:44;;;;;;;;;11.67;10.67;23.90;39.30;;;;;;111197;1243;49488;-65
2023/03/26 00:11:13;;;;;;;;;10.50;8.75;23.90;39.20;;;;;;111134;1239;44508;-65
2023/03/26 00:13:42;;;;;;;;;10.50;9.50;23.90;39.40;;;;;;111266;1242;54389;-65
2023/03/26 00:16:12;;;;;;;;;10.00;9.00;23.90;39.20;;;;;;111229;1240;54504;-70
2023/03/26 00:18:41;;;;;;;;;12.00;10.00;23.90;39.20;;;;;;111246;1243;48889;-69
2023/03/26 00:21:12;;;;;;;;;10.75;9.75;23.90;39.20;;;;;;111088;1238;50065;-66
2023/03/26 00:23:40;;;;;;;;;11.33;10.33;23.90;39.20;;;;;;111260;1238;45877;-69
2023/03/26 00:26:11;;;;;;;;;11.00;10.00;23.90;39.20;;;;;;111323;1238;54371;-66
2023/03/26 00:28:40;;;;;;;;;12.00;10.00;23.90;39.20;;;;;;111300;1242;54082;-67
2023/03/26 00:31:13;;;;;;;;;13.50;11.00;23.90;39.20;;;;;;111082;1238;50417;-65
2023/03/26 00:33:40;;;;;;;;;10.67;9.67;23.80;39.10;;;;;;111290;1239;49541;-67
2023/03/26 00:36:13;;;;;;;;;9.00;7.75;23.80;39.00;;;;;;111245;1241;44778;-64
2023/03/26 00:38:41;;;;;;;;;11.00;9.00;23.80;39.00;;;;;;111349;1241;55252;-66
2023/03/26 00:41:21;;;;;;;;;9.75;8.75;23.80;39.00;;;;;;111152;1239;54090;-65
2023/03/26 00:43:54;;;;;;;;;10.00;9.00;23.80;39.00;;;;;;111157;1238;49826;-65
2023/03/26 00:46:23;;;;;;;;;9.00;8.00;23.80;39.00;;;;;;111132;1243;49700;-65
2023/03/26 00:48:50;;;;;;;;;10.00;9.00;23.80;39.00;;;;;;111209;1238;45342;-65
2023/03/26 00:51:19;;;;;;;;;11.75;10.00;23.80;39.00;;;;;;111047;1238;55353;-65
2023/03/26 00:53:48;;;;;;;;;12.25;11.00;23.80;39.00;;;;;;111194;1244;54282;-65
2023/03/26 00:56:15;;;;;;;;;10.00;9.00;23.80;39.30;;;;;;111179;1240;50508;-65
2023/03/26 00:58:43;;;;;;;;;11.00;9.00;23.80;39.00;;;;;;111186;1239;50045;-64
2023/03/26 01:01:13;;;;;;;;;10.67;9.33;23.80;39.00;;;;;;111083;1241;46151;-65
2023/03/26 01:03:42;;;;;;;;;11.25;10.00;23.70;39.00;;;;;;111205;1243;55237;-65
2023/03/26 01:06:13;;;;;;;;;11.25;10.00;23.70;39.00;;;;;;111224;1245;53332;-65
2023/03/26 01:08:47;;;;;;;;;10.00;9.00;23.70;39.10;;;;;;111180;1243;49812;-66
2023/03/26 01:11:23;;;;;;;;;12.75;9.75;23.70;39.20;;;;;;111006;1243;49029;-66
2023/03/26 01:13:54;;;;;;;;;11.00;9.00;23.70;39.20;;;;;;111148;1239;45397;-66
2023/03/26 01:16:29;;;;;;;;;10.00;8.67;23.70;39.50;;;;;;111218;1243;54386;-65
2023/03/26 01:18:57;;;;;;;;;10.75;9.25;23.70;38.90;;;;;;111293;1238;54573;-66
2023/03/26 01:21:30;;;;;;;;;10.75;9.50;23.70;39.00;;;;;;110955;1243;50016;-66
2023/03/26 01:23:58;;;;;;;;;11.00;9.50;23.70;39.00;;;;;;111184;1242;49588;-66
2023/03/26 01:26:53;;;;;;;;;13.25;10.00;23.70;39.20;;;;;;111180;1243;44804;-67
2023/03/26 01:29:26;;;;;;;;;10.00;9.00;23.70;39.00;;;;;;111233;1238;55399;-67
2023/03/26 01:32:00;;;;;;;;;11.50;10.00;23.60;38.90;;;;;;110971;1238;54651;-66
2023/03/26 01:34:41;;;;;;;;;9.50;8.50;23.60;39.00;;;;;;111249;1238;49620;-66
2023/03/26 01:37:46;;;;;;;;;12.00;9.33;23.60;38.90;;;;;;111151;1243;49094;-66
2023/03/26 01:40:27;;;;;;;;;10.75;8.00;23.60;38.90;;;;;;111195;1243;45587;-66
2023/03/26 01:42:54;;;;;;;;;10.25;9.00;23.60;38.90;;;;;;110971;1243;54942;-65
2023/03/26 01:45:25;;;;;;;;;11.00;8.00;23.60;38.90;;;;;;111158;1243;53760;-66
2023/03/26 01:47:53;;;;;;;;;9.75;8.75;23.60;39.00;;;;;;111239;1244;49166;-66
2023/03/26 01:50:20;;;;;;;;;10.50;8.75;23.60;38.90;;;;;;111227;1238;49937;-66
2023/03/26 01:52:47;;;;;;;;;10.00;9.00;23.60;38.90;;;;;;111021;1238;45043;-66
2023/03/26 01:55:14;;;;;;;;;10.67;9.00;23.60;38.90;;;;;;111174;1238;54727;-66
2023/03/26 01:58:10;;;;;;;;;9.75;8.25;23.60;39.10;;;;;;111212;1243;54356;-66
2023/03/26 02:00:42;;;;;;;;;9.67;7.67;23.50;38.80;;;;;;111102;1243;50840;-65
2023/03/26 02:03:21;;;;;;;;;9.50;7.00;23.50;38.80;;;;;;110975;1244;48678;-66
2023/03/26 02:05:52;;;;;;;;;9.67;7.33;23.50;39.30;;;;;;111216;1238;45427;-66
2023/03/26 02:08:40;;;;;;;;;11.25;8.75;23.60;38.80;;;;;;111217;1243;54903;-66
2023/03/26 02:11:12;;;;;;;;;9.75;8.75;23.50;39.00;;;;;;111009;1240;53919;-66
2023/03/26 02:13:41;;;;;;;;;9.25;8.00;23.50;38.80;;;;;;111196;1244;50485;-66
2023/03/26 02:16:12;;;;;;;;;8.75;7.50;23.50;38.80;;;;;;111175;1238;48713;-66
2023/03/26 02:18:40;;;;;;;;;10.67;8.67;23.50;38.80;;;;;;111228;1243;45681;-66
2023/03/26 02:21:21;;;;;;;;;9.00;8.00;23.50;38.70;;;;;;111022;1238;54816;-67
2023/03/26 02:23:56;;;;;;;;;9.00;7.00;23.50;38.90;;;;;;111169;1243;53720;-65
2023/03/26 02:26:23;;;;;;;;;9.00;7.75;23.50;39.00;;;;;;111242;1238;50277;-67
2023/03/26 02:28:50;;;;;;;;;9.75;8.50;23.50;38.80;;;;;;111223;1239;49117;-66
2023/03/26 02:31:18;;;;;;;;;8.00;7.00;23.50;39.00;;;;;;110960;1238;45024;-66
2023/03/26 02:33:46;;;;;;;;;10.50;9.00;23.50;38.80;;;;;;111306;1240;55360;-67
2023/03/26 02:36:13;;;;;;;;;9.25;7.75;23.40;38.80;;;;;;111212;1243;53582;-67
2023/03/26 02:38:40;;;;;;;;;9.00;8.00;23.40;38.90;;;;;;111203;1238;49037;-67
2023/03/26 02:41:07;;;;;;;;;10.00;9.00;23.40;38.70;;;;;;111093;1243;50026;-67
2023/03/26 02:43:34;;;;;;;;;10.33;8.67;23.40;38.80;;;;;;111297;1243;44408;-68
2023/03/26 02:46:01;;;;;;;;;9.00;7.00;23.40;39.00;;;;;;111310;1243;54102;-68
2023/03/26 02:48:28;;;;;;;;;9.00;8.00;23.40;38.40;;;;;;111183;1241;54538;-67
2023/03/26 02:50:55;;;;;;;;;10.67;9.67;23.30;38.70;;;;;;111153;1238;48968;-67
2023/03/26 02:53:28;;;;;;;;;9.00;8.00;23.30;39.00;;;;;;111051;1243;50921;-69
2023/03/26 02:55:56;;;;;;;;;10.75;9.50;23.30;38.70;;;;;;111443;1247;45255;-67
2023/03/26 02:58:25;;;;;;;;;9.00;8.00;23.30;38.70;;;;;;111284;1243;54989;-68
2023/03/26 03:00:55;;;;;;;;;9.67;7.67;23.30;38.70;;;;;;111281;1238;54141;-67
2023/03/26 03:03:24;;;;;;;;;9.00;8.00;23.30;38.70;;;;;;111065;1243;49334;-67
2023/03/26 03:05:52;;;;;;;;;8.75;7.75;23.30;38.70;;;;;;111147;1242;48790;-66
2023/03/26 03:08:21;;;;;;;;;11.00;8.00;23.30;38.60;;;;;;111187;1238;45409;-67
2023/03/26 03:11:00;;;;;;;;;9.00;8.00;23.30;38.90;;;;;;111250;1243;54534;-66
2023/03/26 03:13:27;;;;;;;;;9.25;8.00;23.30;39.30;;;;;;111410;1238;54154;-66
2023/03/26 03:15:54;;;;;;;;;9.00;8.00;23.30;38.70;;;;;;111218;1238;49696;-65
2023/03/26 03:18:21;;;;;;;;;9.00;7.75;23.30;38.60;;;;;;111266;1243;48375;-65
2023/03/26 03:20:48;;;;;;;;;10.75;9.25;23.30;38.80;;;;;;111187;1238;45800;-65
2023/03/26 03:23:16;;;;;;;;;10.50;9.25;23.20;38.60;;;;;;111195;1238;55669;-66
2023/03/26 03:25:43;;;;;;;;;9.33;8.00;23.20;38.60;;;;;;111453;1243;53976;-65
2023/03/26 03:28:10;;;;;;;;;11.50;9.25;23.20;38.80;;;;;;111181;1243;49843;-67
2023/03/26 03:30:37;;;;;;;;;9.25;8.00;23.20;38.70;;;;;;111212;1239;49643;-68
2023/03/26 03:33:04;;;;;;;;;10.50;9.00;23.20;38.60;;;;;;111139;1243;44472;-66
2023/03/26 03:35:32;;;;;;;;;9.25;7.75;23.20;38.70;;;;;;111345;1238;54498;-66
2023/03/26 03:37:59;;;;;;;;;10.00;9.00;23.20;38.60;;;;;;111231;1243;54036;-67
2023/03/26 03:40:26;;;;;;;;;10.25;9.00;23.20;38.60;;;;;;111155;1243;48806;-68
2023/03/26 03:42:54;;;;;;;;;9.75;8.75;23.10;38.70;;;;;;110944;1239;49650;-68
2023/03/26 03:45:21;;;;;;;;;9.67;7.67;23.10;38.70;;;;;;111344;1245;44860;-67
2023/03/26 03:47:47;;;;;;;;;9.75;7.75;23.10;38.50;;;;;;111311;1243;55408;-67
2023/03/26 03:50:15;;;;;;;;;9.00;8.00;23.10;38.50;;;;;;111177;1238;54578;-68
2023/03/26 03:52:42;;;;;;;;;10.50;7.75;23.10;38.70;;;;;;111033;1238;49746;-67
2023/03/26 03:55:09;;;;;;;;;8.67;7.67;23.10;38.60;;;;;;111285;1245;49416;-67
2023/03/26 03:57:36;;;;;;;;;8.33;7.00;23.10;38.50;;;;;;111221;1243;45092;-67
2023/03/26 04:00:04;;;;;;;;;10.00;9.00;23.10;38.50;;;;;;111465;1243;54736;-67
2023/03/26 04:02:33;;;;;;;;;9.50;8.50;23.10;38.50;;;;;;111145;1243;53852;-67
2023/03/26 04:05:02;;;;;;;;;9.00;8.00;23.10;38.50;;;;;;111482;1243;50053;-67
2023/03/26 04:07:30;;;;;;;;;9.00;8.00;23.10;38.50;;;;;;111367;1241;49557;-66
2023/03/26 04:10:01;;;;;;;;;9.00;8.00;23.10;38.50;;;;;;111220;1242;45083;-66
2023/03/26 04:12:29;;;;;;;;;9.75;8.25;23.10;38.50;;;;;;111045;1238;54400;-66
2023/03/26 04:14:57;;;;;;;;;11.00;8.00;23.00;38.60;;;;;;111329;1243;53366;-65
2023/03/26 04:17:25;;;;;;;;;9.25;7.75;23.10;38.40;;;;;;111169;1238;49071;-66
2023/03/26 04:19:53;;;;;;;;;13.00;8.25;23.00;38.30;;;;;;111155;1238;49091;-67
2023/03/26 04:22:21;;;;;;;;;10.00;9.00;23.00;38.60;;;;;;110998;1243;45101;-66
2023/03/26 04:24:49;;;;;;;;;8.00;6.00;23.00;38.60;;;;;;111224;1238;54666;-67
2023/03/26 04:27:19;;;;;;;;;10.00;8.75;23.00;38.60;;;;;;111137;1238;53331;-64
2023/03/26 04:29:48;;;;;;;;;11.00;8.00;23.00;38.40;;;;;;111135;1241;49046;-65
2023/03/26 04:32:25;;;;;;;;;10.75;8.00;23.00;38.30;;;;;;110957;1241;50068;-66
2023/03/26 04:34:52;;;;;;;;;10.33;9.00;23.00;38.30;;;;;;111335;1238;45170;-65
2023/03/26 04:37:38;;;;;;;;;9.00;7.75;23.00;38.90;;;;;;111296;1241;54367;-65
2023/03/26 04:40:14;;;;;;;;;11.00;9.75;23.00;38.50;;;;;;111337;1238;54090;-66
2023/03/26 04:42:44;;;;;;;;;9.25;7.25;23.00;38.30;;;;;;110950;1238;49442;-65
2023/03/26 04:45:13;;;;;;;;;10.00;8.00;23.00;38.30;;;;;;111184;1243;48864;-64
2023/03/26 04:47:40;;;;;;;;;9.00;8.00;23.00;38.20;;;;;;111227;1243;45115;-65
2023/03/26 04:50:10;;;;;;;;;8.67;7.67;23.00;38.20;;;;;;111164;1241;55299;-66
2023/03/26 04:52:37;;;;;;;;;9.00;7.00;23.00;38.20;;;;;;111092;1240;53771;-67
2023/03/26 04:55:24;;;;;;;;;8.00;7.00;23.00;38.80;;;;;;111266;1242;49490;-65
2023/03/26 04:57:56;;;;;;;;;10.75;8.75;23.00;38.60;;;;;;111350;1240;48702;-65
2023/03/26 05:00:24;;;;;;;;;10.67;9.00;23.00;38.50;;;;;;111274;1245;45927;-64
2023/03/26 05:02:52;;;;;;;;;11.00;9.00;23.00;38.50;;;;;;111060;1239;54623;-64
2023/03/26 05:05:19;;;;;;;;;11.33;10.00;23.00;38.80;;;;;;111160;1243;53647;-64
2023/03/26 05:07:46;;;;;;;;;11.50;9.25;22.90;38.80;;;;;;111196;1238;49848;-64
2023/03/26 05:10:14;;;;;;;;;10.50;9.75;22.90;38.80;;;;;;111171;1238;50328;-64
2023/03/26 05:12:42;;;;;;;;;11.00;10.00;22.90;38.90;;;;;;110983;1240;45130;-65
2023/03/26 05:15:10;;;;;;;;;12.00;11.00;22.90;38.90;;;;;;111244;1243;54625;-65
2023/03/26 05:17:40;;;;;;;;;11.67;9.67;23.00;38.90;;;;;;111222;1242;53509;-64
2023/03/26 05:20:15;;;;;;;;;11.00;9.00;23.00;39.00;;;;;;111232;1243;48995;-64
2023/03/26 05:22:43;;;;;;;;;9.25;8.50;22.90;39.00;;;;;;110921;1243;48795;-64
2023/03/26 05:25:10;;;;;;;;;11.00;10.00;22.90;38.90;;;;;;111176;1238;45109;-64
2023/03/26 05:27:37;;;;;;;;;11.75;10.25;23.00;39.10;;;;;;111272;1242;54634;-62
2023/03/26 05:30:06;;;;;;;;;10.25;9.50;22.90;39.10;;;;;;111249;1243;54167;-62
2023/03/26 05:32:33;;;;;;;;;11.75;8.75;22.90;39.40;;;;;;111046;1242;50487;-67
2023/03/26 05:35:00;;;;;;;;;37.25;24.75;22.90;39.50;;;;;;111365;1238;49941;-69
2023/03/26 05:37:29;;;;;;;;;29.25;20.00;23.00;40.80;;;;;;111188;1243;46045;-66
2023/03/26 05:39:58;;;;;;;;;29.50;21.00;23.00;40.50;;;;;;111207;1238;54740;-65
2023/03/26 05:42:25;;;;;;;;;29.00;22.50;22.90;40.70;;;;;;111055;1238;54050;-65
2023/03/26 05:44:52;;;;;;;;;31.00;20.75;23.00;40.60;;;;;;111198;1243;49684;-65
2023/03/26 05:47:19;;;;;;;;;21.33;17.00;23.00;40.70;;;;;;111232;1242;50154;-66
2023/03/26 05:49:46;;;;;;;;;32.25;24.00;22.90;40.90;;;;;;111239;1238;44444;-65
2023/03/26 05:52:15;;;;;;;;;24.00;17.75;23.00;41.30;;;;;;111025;1240;54859;-64
2023/03/26 05:54:41;;;;;;;;;32.25;19.75;23.00;41.60;;;;;;111261;1238;53506;-65
2023/03/26 05:57:09;;;;;;;;;32.33;20.67;23.00;41.90;;;;;;111248;1241;49565;-65
2023/03/26 05:59:36;;;;;;;;;36.75;21.75;23.00;41.80;;;;;;111178;1238;50584;-63
2023/03/26 06:02:03;;;;;;;;;31.00;22.50;23.00;41.90;;;;;;111191;1238;44483;-65
2023/03/26 06:04:30;;;;;;;;;24.75;17.25;23.00;42.50;;;;;;111425;1239;55840;-62
2023/03/26 06:06:57;;;;;;;;;23.33;18.67;23.10;42.40;;;;;;111231;1238;53479;-66
2023/03/26 06:09:25;;;;;;;;;30.00;20.00;23.10;42.30;;;;;;111380;1243;50088;-63
2023/03/26 06:11:52;;;;;;;;;26.25;18.50;23.10;42.20;;;;;;111018;1243;50861;-64
2023/03/26 06:14:19;;;;;;;;;25.00;19.25;23.10;42.20;;;;;;111206;1241;45073;-64
2023/03/26 06:16:46;;;;;;;;;23.33;17.67;23.20;42.20;;;;;;111244;1238;54760;-64
2023/03/26 06:19:13;;;;;;;;;29.00;22.50;23.20;42.00;;;;;;111255;1238;54637;-61
2023/03/26 06:21:40;;;;;;;;;23.00;19.25;23.30;42.30;;;;;;111100;1242;50202;-62
2023/03/26 06:24:07;;;;;;;;;23.50;18.00;23.30;42.30;;;;;;111227;1241;50290;-61
2023/03/26 06:26:34;;;;;;;;;23.00;17.67;23.40;42.30;;;;;;111214;1239;44440;-61
2023/03/26 06:29:01;;;;;;;;;16.00;15.00;23.50;42.90;;;;;;111226;1239;54891;-61
2023/03/26 06:31:28;;;;;;;;;28.00;19.00;23.40;42.40;;;;;;111038;1244;53941;-62
2023/03/26 06:33:55;;;;;;;;;23.00;19.00;23.50;42.40;;;;;;111248;1238;49148;-65
2023/03/26 06:36:22;;;;;;;;;19.00;15.00;23.60;42.30;;;;;;111236;1240;49735;-65
2023/03/26 06:38:49;;;;;;;;;25.75;16.00;23.60;41.90;;;;;;111278;1238;44417;-62
2023/03/26 06:41:16;;;;;;;;;17.75;13.25;23.60;42.00;;;;;;111066;1242;54604;-62
2023/03/26 06:43:43;;;;;;;;;21.00;16.00;23.70;42.10;;;;;;111190;1244;54498;-62
2023/03/26 06:46:10;;;;;;;;;20.50;15.00;23.70;41.90;;;;;;111257;1238;49644;-63
2023/03/26 06:48:39;;;;;;;;;16.50;13.75;23.80;42.10;;;;;;111284;1242;48833;-62
2023/03/26 06:51:06;;;;;;;;;20.25;15.25;23.80;42.10;;;;;;111157;1238;45460;-63
2023/03/26 06:53:33;;;;;;;;;16.00;14.00;23.80;41.80;;;;;;111198;1243;54532;-62
2023/03/26 06:56:01;;;;;;;;;17.25;14.75;23.90;41.90;;;;;;111237;1243;54402;-64
2023/03/26 06:58:29;;;;;;;;;20.00;16.75;23.90;41.80;;;;;;111218;1240;49204;-63
2023/03/26 07:00:56;;;;;;;;;14.67;13.67;24.00;42.00;;;;;;111191;1240;49251;-63
2023/03/26 07:03:23;;;;;;;;;18.50;13.00;24.00;41.90;;;;;;111133;1243;45135;-65
2023/03/26 07:05:50;;;;;;;;;16.25;13.50;24.00;41.80;;;;;;111239;1241;55319;-64
2023/03/26 07:08:18;;;;;;;;;16.00;12.00;24.10;41.70;;;;;;111291;1243;54815;-61
2023/03/26 07:10:45;;;;;;;;;17.00;16.00;24.10;41.90;;;;;;111219;1243;49040;-61
2023/03/26 07:13:12;;;;;;;;;18.00;16.00;24.10;41.50;;;;;;111043;1244;48948;-61
2023/03/26 07:15:39;;;;;;;;;17.75;13.25;24.20;41.40;;;;;;111249;1238;44821;-60
2023/03/26 07:18:06;;;;;;;;;15.75;14.25;24.20;40.80;;;;;;111192;1242;54822;-62
2023/03/26 07:20:33;;;;;;;;;16.50;14.00;24.30;41.80;;;;;;110331;1240;1167193;-62
2023/03/26 07:23:01;;;;;;;;;21.25;16.00;24.30;41.10;;;;;;111140;1238;49564;-61
2023/03/26 07:25:28;;;;;;;;;12.75;11.75;24.40;41.20;;;;;;111215;1244;49153;-62
2023/03/26 07:28:11;;;;;;;;;14.00;13.00;24.40;40.70;;;;;;111274;1238;45296;-61
2023/03/26 07:30:45;;;;;;;;;16.00;12.00;24.40;40.90;;;;;;111265;1242;54142;-63
2023/03/26 07:33:36;;;;;;;;;13.00;12.00;24.50;40.60;;;;;;111058;1238;54158;-63
2023/03/26 07:36:47;;;;;;;;;14.33;11.00;24.50;40.50;;;;;;111253;1239;49563;-65
2023/03/26 07:39:35;;;;;;;;;16.25;14.50;24.60;40.50;;;;;;111335;1240;49808;-66
2023/03/26 07:42:10;;;;;;;;;21.00;14.00;24.70;40.50;;;;;;111140;1238;45038;-64
2023/03/26 07:44:52;;;;;;;;;16.00;13.25;24.80;40.50;;;;;;111230;1243;54819;-66
2023/03/26 07:47:28;;;;;;;;;14.00;13.00;24.80;40.00;;;;;;111395;1238;53557;-69
2023/03/26 07:49:56;;;;;;;;;17.00;12.75;24.90;40.10;;;;;;111247;1245;49800;-68
2023/03/26 07:52:25;;;;;;;;;17.25;13.50;24.90;39.80;;;;;;111059;1240;49286;-66
2023/03/26 07:54:53;;;;;;;;;17.67;13.67;24.90;39.80;;;;;;111269;1244;44675;-66
2023/03/26 07:57:35;;;;;;;;;17.00;13.00;25.00;39.70;;;;;;111244;1239;55447;-65
2023/03/26 08:00:10;;;;;;;;;12.25;10.75;25.00;39.50;;;;;;111239;1239;53919;-66
2023/03/26 08:02:41;;;;;;;;;15.00;10.00;25.00;39.40;;;;;;111024;1243;49572;-66
2023/03/26 08:05:28;;;;;;;;;13.33;11.00;25.10;39.50;;;;;;111260;1243;48999;-69
2023/03/26 08:08:20;;;;;;;;;15.00;12.00;25.10;39.40;;;;;;111286;1241;46009;-64
2023/03/26 08:10:57;;;;;;;;;18.33;11.67;25.20;39.30;;;;;;111153;1243;53951;-66
2023/03/26 08:13:52;;;;;;;;;11.67;10.00;25.30;39.10;;;;;;111128;1238;54149;-67
2023/03/26 08:16:35;;;;;;;;;11.25;10.25;25.30;38.80;;;;;;111265;1238;50218;-67
2023/03/26 08:19:36;;;;;;;;;12.00;11.00;25.30;39.10;;;;;;111211;1239;49988;-66
2023/03/26 08:22:24;;;;;;;;;14.50;13.00;25.40;38.90;;;;;;110902;1243;44794;-67
2023/03/26 08:25:16;;;;;;;;;11.50;9.00;25.40;38.90;;;;;;111214;1240;54136;-67
2023/03/26 08:27:53;;;;;;;;;11.50;10.50;25.50;38.80;;;;;;111142;1240;54312;-66
2023/03/26 08:30:25;;;;;;;;;11.00;9.75;25.50;38.70;;;;;;111200;1243;49838;-64
2023/03/26 08:33:03;;;;;;;;;12.25;10.75;25.50;38.80;;;;;;111051;1238;49033;-64
2023/03/26 08:35:30;;;;;;;;;12.33;11.33;25.50;39.20;;;;;;111228;1243;45202;-65
2023/03/26 08:37:57;;;;;;;;;13.00;12.00;25.50;38.60;;;;;;111235;1243;54260;-67
2023/03/26 08:41:00;;;;;;;;;12.50;10.00;25.50;38.90;;;;;;111179;1244;54349;-68
2023/03/26 08:43:37;;;;;;;;;10.00;9.00;25.60;38.70;;;;;;110988;1240;49146;-65
2023/03/26 08:46:14;;;;;;;;;12.00;11.00;25.60;38.60;;;;;;111216;1242;49922;-67
2023/03/26 08:48:59;;;;;;;;;12.67;8.00;25.60;38.30;;;;;;111251;1243;45743;-65
2023/03/26 08:51:26;;;;;;;;;10.00;9.00;25.70;38.20;;;;;;111115;1238;54662;-64
2023/03/26 08:54:11;;;;;;;;;13.00;10.25;25.70;38.40;;;;;;111234;1243;53447;-63
2023/03/26 08:56:48;;;;;;;;;14.00;11.75;25.70;38.40;;;;;;111207;1246;49806;-64
2023/03/26 08:59:24;;;;;;;;;16.50;11.75;25.70;38.20;;;;;;111283;1243;48796;-66
2023/03/26 09:02:07;;;;;;;;;9.75;8.25;25.80;38.40;;;;;;111088;1243;45121;-66
2023/03/26 09:04:43;;;;;;;;;11.00;10.00;25.80;38.30;;;;;;111255;1238;55537;-66
2023/03/26 09:07:19;;;;;;;;;10.33;9.00;25.80;38.10;;;;;;111255;1240;53434;-69
2023/03/26 09:09:54;;;;;;;;;11.75;10.75;25.90;38.10;;;;;;111310;1243;49642;-68
2023/03/26 09:12:43;;;;;;;;;11.75;10.75;25.90;38.00;;;;;;111021;1240;50627;-67
2023/03/26 09:15:35;;;;;;;;;10.00;9.00;25.90;38.10;;;;;;111222;1240;45254;-66
2023/03/26 09:18:04;;;;;;;;;12.00;10.75;25.90;38.10;;;;;;111322;1238;55824;-67
2023/03/26 09:20:52;;;;;;;;;12.00;9.33;25.90;38.10;;;;;;111203;1243;54137;-63
2023/03/26 09:24:01;;;;;;;;;11.67;9.00;25.90;38.20;;;;;;111037;1244;50400;-65
2023/03/26 09:26:34;;;;;;;;;10.75;8.75;25.90;37.90;;;;;;111045;1243;49024;-65
2023/03/26 09:29:19;;;;;;;;;11.75;9.75;26.00;37.80;;;;;;111317;1240;45532;-65
2023/03/26 09:32:23;;;;;;;;;10.00;9.00;26.10;37.80;;;;;;111195;1238;54513;-63
2023/03/26 09:34:56;;;;;;;;;11.00;8.75;26.10;38.10;;;;;;111317;1239;53890;-64
2023/03/26 09:37:33;;;;;;;;;12.00;9.75;26.10;37.90;;;;;;111148;1243;49680;-69
2023/03/26 09:40:06;;;;;;;;;10.75;9.75;26.10;37.50;;;;;;111138;1243;49008;-67
2023/03/26 09:42:46;;;;;;;;;11.00;10.33;26.20;37.60;;;;;;111140;1239;44493;-68
2023/03/26 09:45:30;;;;;;;;;11.67;9.67;26.20;37.30;;;;;;111171;1240;56160;-68
2023/03/26 09:48:09;;;;;;;;;10.50;9.25;26.20;37.30;;;;;;111216;1242;54091;-67
2023/03/26 09:51:12;;;;;;;;;12.50;9.00;26.20;36.90;;;;;;111180;1242;49517;-67
2023/03/26 09:53:45;;;;;;;;;9.00;8.00;26.20;37.20;;;;;;110796;1245;48984;-68
2023/03/26 09:56:25;;;;;;;;;11.50;10.00;26.30;36.90;;;;;;111119;1239;45483;-74
2023/03/26 09:59:17;;;;;;;;;9.25;8.50;26.30;36.80;;;;;;111208;1243;54920;-75
2023/03/26 10:01:56;;;;;;;;;14.50;12.00;26.20;36.30;;;;;;111061;1240;54176;-74
2023/03/26 10:04:31;;;;;;;;;11.75;10.75;26.30;36.60;;;;;;111262;1243;48974;-71
2023/03/26 10:07:39;;;;;;;;;11.75;9.00;26.30;36.70;;;;;;111171;1239;50887;-71
2023/03/26 10:10:43;;;;;;;;;16.00;13.00;26.30;36.20;;;;;;111228;1238;45709;-73
2023/03/26 10:13:31;;;;;;;;;10.00;9.00;26.40;36.60;;;;;;111554;1238;54965;-72
2023/03/26 10:16:03;;;;;;;;;16.25;11.00;26.40;36.30;;;;;;111199;1243;54408;-69
2023/03/26 10:19:18;;;;;;;;;13.00;10.00;26.50;36.00;;;;;;111297;1242;49244;-73
2023/03/26 10:22:20;;;;;;;;;10.00;9.00;26.40;35.80;;;;;;110704;1244;49147;-66
2023/03/26 10:25:00;;;;;;;;;10.00;9.00;26.50;35.70;;;;;;111468;1243;44844;-65
2023/03/26 10:27:36;;;;;;;;;12.67;9.00;26.50;35.60;;;;;;111338;1243;55182;-65
2023/03/26 10:30:06;;;;;;;;;10.00;9.00;26.50;35.70;;;;;;111269;1240;54161;-64
2023/03/26 10:32:49;;;;;;;;;10.00;9.00;26.50;35.20;;;;;;111132;1244;50502;-63
2023/03/26 10:35:34;;;;;;;;;11.00;10.00;26.40;35.30;;;;;;111289;1243;49181;-66
2023/03/26 10:38:11;;;;;;;;;14.50;9.50;26.40;35.30;;;;;;111339;1240;44638;-65
2023/03/26 10:40:54;;;;;;;;;10.75;8.00;26.40;35.90;;;;;;111420;1238;54298;-67
2023/03/26 10:43:32;;;;;;;;;12.00;9.00;26.30;35.90;;;;;;111286;1239;53711;-66
2023/03/26 10:46:37;;;;;;;;;10.75;8.75;26.40;35.80;;;;;;111453;1240;49988;-66
2023/03/26 10:49:09;;;;;;;;;10.67;8.67;26.40;35.50;;;;;;111485;1243;49515;-70
2023/03/26 10:51:41;;;;;;;;;13.00;8.00;26.40;35.30;;;;;;111333;1240;45523;-70
2023/03/26 10:54:27;;;;;;;;;9.75;8.75;26.40;35.20;;;;;;111781;1243;55588;-66
2023/03/26 10:56:54;;;;;;;;;11.00;10.00;26.30;35.60;;;;;;111585;1238;53369;-67
2023/03/26 10:59:26;;;;;;;;;10.25;9.25;26.40;35.20;;;;;;111749;1242;50457;-67
2023/03/26 11:02:03;;;;;;;;;10.00;9.00;26.40;34.90;;;;;;111060;1238;50418;-69
2023/03/26 11:04:52;;;;;;;;;9.00;8.00;26.40;34.60;;;;;;111509;1238;44436;-70
2023/03/26 11:07:39;;;;;;;;;9.00;8.00;26.40;34.50;;;;;;111501;1241;54947;-71
2023/03/26 11:10:24;;;;;;;;;11.00;8.00;26.40;35.00;;;;;;111698;1243;53771;-67
2023/03/26 11:13:12;;;;;;;;;10.25;7.75;26.40;34.50;;;;;;111473;1243;48554;-65
2023/03/26 11:15:45;;;;;;;;;11.00;8.33;26.50;35.00;;;;;;111334;1238;50348;-64
2023/03/26 11:18:44;;;;;;;;;10.00;9.00;26.50;35.10;;;;;;111385;1243;45022;-64
2023/03/26 11:21:25;;;;;;;;;9.00;8.00;26.50;35.10;;;;;;111165;1238;54842;-62
2023/03/26 11:24:31;;;;;;;;;12.50;9.75;26.50;35.30;;;;;;111298;1240;54888;-72
2023/03/26 11:27:03;;;;;;;;;9.75;8.75;26.50;35.00;;;;;;111229;1245;48907;-70
2023/03/26 11:29:30;;;;;;;;;9.00;8.25;26.50;35.10;;;;;;111174;1243;48669;-70
2023/03/26 11:32:09;;;;;;;;;12.50;9.00;26.50;34.50;;;;;;111159;1239;45056;-66
2023/03/26 11:34:43;;;;;;;;;9.00;8.00;26.50;35.70;;;;;;111327;1238;54916;-68
2023/03/26 11:37:19;;;;;;;;;11.50;8.75;26.60;36.00;;;;;;111389;1240;53726;-67
2023/03/26 11:39:52;;;;;;;;;8.00;7.00;26.70;36.30;;;;;;111225;1239;49932;-71
2023/03/26 11:42:22;;;;;;;;;10.25;8.00;26.80;36.20;;;;;;111092;1239;49412;-67
2023/03/26 11:44:55;;;;;;;;;9.00;8.00;26.90;36.40;;;;;;111340;1242;45690;-67
2023/03/26 11:47:30;;;;;;;;;9.67;8.67;27.00;36.30;;;;;;111167;1243;54432;-68
2023/03/26 11:49:59;;;;;;;;;9.33;8.00;27.10;36.30;;;;;;111225;1243;53607;-70
2023/03/26 11:52:26;;;;;;;;;11.25;9.00;27.20;36.50;;;;;;111105;1240;49550;-73
2023/03/26 11:54:57;;;;;;;;;10.00;9.00;27.30;36.10;;;;;;111300;1241;48831;-70
2023/03/26 11:57:29;;;;;;;;;8.00;7.00;27.40;35.80;;;;;;111342;1241;45680;-73
2023/03/26 12:00:03;;;;;;;;;9.00;8.00;27.40;35.50;;;;;;111334;1240;55341;-71
2023/03/26 12:02:38;;;;;;;;;9.00;8.33;27.50;35.40;;;;;;111192;1241;53608;-70
2023/03/26 12:05:17;;;;;;;;;8.25;7.00;27.50;35.50;;;;;;111261;1238;49816;-69
2023/03/26 12:08:01;;;;;;;;;9.00;8.00;27.60;35.70;;;;;;111238;1243;49108;-70
2023/03/26 12:10:33;;;;;;;;;8.75;7.75;27.60;36.00;;;;;;111218;1240;45068;-72
2023/03/26 12:13:05;;;;;;;;;8.75;7.75;27.70;36.00;;;;;;111079;1243;54953;-71
2023/03/26 12:15:32;;;;;;;;;10.50;8.00;27.70;36.00;;;;;;111254;1238;53800;-69
2023/03/26 12:18:27;;;;;;;;;9.67;7.67;27.80;36.30;;;;;;111217;1243;49493;-70
2023/03/26 12:21:03;;;;;;;;;9.00;8.00;27.80;36.20;;;;;;111179;1240;48937;-69
2023/03/26 12:23:37;;;;;;;;;9.00;8.00;27.90;36.00;;;;;;111184;1243;45029;-68
2023/03/26 12:26:30;;;;;;;;;8.75;7.75;27.90;35.90;;;;;;111205;1243;55838;-70
2023/03/26 12:29:05;;;;;;;;;11.00;9.25;28.00;36.30;;;;;;111116;1243;54272;-69
2023/03/26 12:31:41;;;;;;;;;8.75;7.50;28.00;36.30;;;;;;111070;1239;48839;-68
2023/03/26 12:34:18;;;;;;;;;8.67;7.33;28.10;36.70;;;;;;111511;1243;48340;-69
2023/03/26 12:36:52;;;;;;;;;8.75;7.75;28.10;36.40;;;;;;111287;1243;45104;-73
2023/03/26 12:39:37;;;;;;;;;9.00;7.67;28.20;36.50;;;;;;111266;1240;55074;-68
2023/03/26 12:42:29;;;;;;;;;8.75;7.75;28.20;36.60;;;;;;111100;1242;53810;-71
2023/03/26 12:44:57;;;;;;;;;9.00;8.00;28.20;36.80;;;;;;111460;1238;49511;-73
2023/03/26 12:47:27;;;;;;;;;9.00;6.50;28.30;36.90;;;;;;111258;1243;49660;-73
2023/03/26 12:49:54;;;;;;;;;11.50;9.00;28.30;36.90;;;;;;111290;1238;44552;-69
2023/03/26 12:53:07;;;;;;;;;9.25;8.00;28.30;36.70;;;;;;111090;1240;54137;-69
2023/03/26 12:56:05;;;;;;;;;9.00;6.25;28.30;37.10;;;;;;111056;1244;53684;-67
2023/03/26 12:58:58;;;;;;;;;9.00;8.00;28.30;36.90;;;;;;111379;1240;49467;-67
2023/03/26 13:01:40;;;;;;;;;7.67;6.67;28.40;37.10;;;;;;111109;1243;50157;-73